sensor_id;sensor_type;location;lat;lon;timestamp;P1;durP1;ratioP1;P2;durP2;ratioP2
37365;SDS011;23239;51.504;7.456;2024-01-27T00:00:00;23.4;;;5.0;;
37365;SDS011;23239;51.504;7.456;2024-01-27T00:01:00;23.4;;;5.0;;
37365;SDS011;23239;51.504;7.456;2024-01-27T00:02:00;23.4;;;5.0;;
37365;SDS011;23239;51.504;7.456;2024-01-27T00:03:00;23.4;;;5.0;;
37365;SDS011;23239;51.504;7.456;2024-01-27T00:04:00;19.1;;;4.1;;
37365;SDS011;23239;51.504;7.456;2024-01-27T00:05:00;19.1;;;4.1;;
37365;SDS011;23239;51.504;7.456;2024-01-27T00:06:00;19.1;;;4.1;;
37365;SDS011;23239;51.504;7.456;2024-01-27T00:07:00;19.1;;;4.1;;
37365;SDS011;23239;51.504;7.456;2024-01-27T00:08:00;19.1;;;4.1;;
37365;SDS011;23239;51.504;7.456;2024-01-27T00:09:00;16.9;;;4.1;;
37365;SDS011;23239;51.504;7.456;2024-01-27T00:10:01;16.9;;;4.1;;
37365;SDS011;23239;51.504;7.456;2024-01-27T00:11:00;16.9;;;4.1;;
37365;SDS011;23239;51.504;7.456;2024-01-27T00:12:00;16.9;;;4.1;;
37365;SDS011;23239;51.504;7.456;2024-01-27T00:13:00;16.9;;;4.1;;
37365;SDS011;23239;51.504;7.456;2024-01-27T00:14:00;18.5;;;4.3;;
37365;SDS011;23239;51.504;7.456;2024-01-27T00:15:00;18.5;;;4.3;;
37365;SDS011;23239;51.504;7.456;2024-01-27T00:16:00;18.5;;;4.3;;
37365;SDS011;23239;51.504;7.456;2024-01-27T00:17:00;18.5;;;4.3;;
37365;SDS011;23239;51.504;7.456;2024-01-27T00:18:00;18.5;;;4.3;;
37365;SDS011;23239;51.504;7.456;2024-01-27T00:19:00;17.8;;;4.5;;
37365;SDS011;23239;51.504;7.456;2024-01-27T00:20:00;17.8;;;4.5;;
37365;SDS011;23239;51.504;7.456;2024-01-27T00:21:00;17.8;;;4.5;;
37365;SDS011;23239;51.504;7.456;2024-01-27T00:22:00;17.8;;;4.5;;
37365;SDS011;23239;51.504;7.456;2024-01-27T00:23:00;17.8;;;4.5;;
37365;SDS011;23239;51.504;7.456;2024-01-27T00:24:00;17.7;;;4.1;;
37365;SDS011;23239;51.504;7.456;2024-01-27T00:25:00;17.7;;;4.1;;
37365;SDS011;23239;51.504;7.456;2024-01-27T00:26:00;17.7;;;4.1;;
37365;SDS011;23239;51.504;7.456;2024-01-27T00:27:00;17.7;;;4.1;;
37365;SDS011;23239;51.504;7.456;2024-01-27T00:28:00;17.7;;;4.1;;
37365;SDS011;23239;51.504;7.456;2024-01-27T00:29:00;20.2;;;4.5;;
37365;SDS011;23239;51.504;7.456;2024-01-27T00:30:00;20.2;;;4.5;;
37365;SDS011;23239;51.504;7.456;2024-01-27T00:31:00;20.2;;;4.5;;
37365;SDS011;23239;51.504;7.456;2024-01-27T00:32:00;20.2;;;4.5;;
37365;SDS011;23239;51.504;7.456;2024-01-27T00:33:00;20.2;;;4.5;;
37365;SDS011;23239;51.504;7.456;2024-01-27T00:34:00;19.3;;;4.6;;
37365;SDS011;23239;51.504;7.456;2024-01-27T00:35:00;19.3;;;4.6;;
37365;SDS011;23239;51.504;7.456;2024-01-27T00:36:00;19.3;;;4.6;;
37365;SDS011;23239;51.504;7.456;2024-01-27T00:37:00;19.3;;;4.6;;
37365;SDS011;23239;51.504;7.456;2024-01-27T00:38:00;19.3;;;4.6;;
37365;SDS011;23239;51.504;7.456;2024-01-27T00:39:00;17.3;;;4.7;;
37365;SDS011;23239;51.504;7.456;2024-01-27T00:40:00;17.3;;;4.7;;
37365;SDS011;23239;51.504;7.456;2024-01-27T00:41:00;17.3;;;4.7;;
37365;SDS011;23239;51.504;7.456;2024-01-27T00:42:00;17.3;;;4.7;;
37365;SDS011;23239;51.504;7.456;2024-01-27T00:43:01;17.3;;;4.7;;
37365;SDS011;23239;51.504;7.456;2024-01-27T00:44:00;17.9;;;4.5;;
37365;SDS011;23239;51.504;7.456;2024-01-27T00:45:00;17.9;;;4.5;;
37365;SDS011;23239;51.504;7.456;2024-01-27T00:46:00;17.9;;;4.5;;
37365;SDS011;23239;51.504;7.456;2024-01-27T00:47:00;17.9;;;4.5;;
37365;SDS011;23239;51.504;7.456;2024-01-27T00:48:00;17.9;;;4.5;;
37365;SDS011;23239;51.504;7.456;2024-01-27T00:49:00;18.2;;;4.5;;
37365;SDS011;23239;51.504;7.456;2024-01-27T00:50:00;18.2;;;4.5;;
37365;SDS011;23239;51.504;7.456;2024-01-27T00:51:00;18.2;;;4.5;;
37365;SDS011;23239;51.504;7.456;2024-01-27T00:52:00;18.2;;;4.5;;
37365;SDS011;23239;51.504;7.456;2024-01-27T00:53:00;18.2;;;4.5;;
37365;SDS011;23239;51.504;7.456;2024-01-27T00:54:00;18.2;;;5.0;;
37365;SDS011;23239;51.504;7.456;2024-01-27T00:55:00;18.2;;;5.0;;
37365;SDS011;23239;51.504;7.456;2024-01-27T00:56:00;18.2;;;5.0;;
37365;SDS011;23239;51.504;7.456;2024-01-27T00:57:00;18.2;;;5.0;;
37365;SDS011;23239;51.504;7.456;2024-01-27T00:58:00;18.2;;;5.0;;
37365;SDS011;23239;51.504;7.456;2024-01-27T00:59:00;17.9;;;4.3;;
37365;SDS011;23239;51.504;7.456;2024-01-27T01:00:00;17.9;;;4.3;;
37365;SDS011;23239;51.504;7.456;2024-01-27T01:01:00;17.9;;;4.3;;
37365;SDS011;23239;51.504;7.456;2024-01-27T01:02:00;17.9;;;4.3;;
37365;SDS011;23239;51.504;7.456;2024-01-27T01:03:00;17.9;;;4.3;;
37365;SDS011;23239;51.504;7.456;2024-01-27T01:04:00;19.2;;;5.0;;
37365;SDS011;23239;51.504;7.456;2024-01-27T01:05:00;19.2;;;5.0;;
37365;SDS011;23239;51.504;7.456;2024-01-27T01:06:00;19.2;;;5.0;;
37365;SDS011;23239;51.504;7.456;2024-01-27T01:07:00;19.2;;;5.0;;
37365;SDS011;23239;51.504;7.456;2024-01-27T01:08:00;19.2;;;5.0;;
37365;SDS011;23239;51.504;7.456;2024-01-27T01:09:00;18.2;;;4.4;;
37365;SDS011;23239;51.504;7.456;2024-01-27T01:10:00;18.2;;;4.4;;
37365;SDS011;23239;51.504;7.456;2024-01-27T01:11:00;18.2;;;4.4;;
37365;SDS011;23239;51.504;7.456;2024-01-27T01:12:00;18.2;;;4.4;;
37365;SDS011;23239;51.504;7.456;2024-01-27T01:13:00;18.2;;;4.4;;
37365;SDS011;23239;51.504;7.456;2024-01-27T01:14:00;21.8;;;5.2;;
37365;SDS011;23239;51.504;7.456;2024-01-27T01:15:00;21.8;;;5.2;;
37365;SDS011;23239;51.504;7.456;2024-01-27T01:16:00;21.8;;;5.2;;
37365;SDS011;23239;51.504;7.456;2024-01-27T01:17:00;21.8;;;5.2;;
37365;SDS011;23239;51.504;7.456;2024-01-27T01:18:00;21.8;;;5.2;;
37365;SDS011;23239;51.504;7.456;2024-01-27T01:19:00;19.9;;;4.7;;
37365;SDS011;23239;51.504;7.456;2024-01-27T01:20:00;19.9;;;4.7;;
37365;SDS011;23239;51.504;7.456;2024-01-27T01:21:00;19.9;;;4.7;;
37365;SDS011;23239;51.504;7.456;2024-01-27T01:22:00;19.9;;;4.7;;
37365;SDS011;23239;51.504;7.456;2024-01-27T01:23:00;19.9;;;4.7;;
37365;SDS011;23239;51.504;7.456;2024-01-27T01:24:00;20.6;;;5.0;;
37365;SDS011;23239;51.504;7.456;2024-01-27T01:25:00;20.6;;;5.0;;
37365;SDS011;23239;51.504;7.456;2024-01-27T01:26:00;20.6;;;5.0;;
37365;SDS011;23239;51.504;7.456;2024-01-27T01:27:00;20.6;;;5.0;;
37365;SDS011;23239;51.504;7.456;2024-01-27T01:28:00;20.6;;;5.0;;
37365;SDS011;23239;51.504;7.456;2024-01-27T01:29:00;13.0;;;4.3;;
37365;SDS011;23239;51.504;7.456;2024-01-27T01:30:00;13.0;;;4.3;;
37365;SDS011;23239;51.504;7.456;2024-01-27T01:31:00;13.0;;;4.3;;
37365;SDS011;23239;51.504;7.456;2024-01-27T01:32:00;13.0;;;4.3;;
37365;SDS011;23239;51.504;7.456;2024-01-27T01:33:00;13.0;;;4.3;;
37365;SDS011;23239;51.504;7.456;2024-01-27T01:34:00;18.1;;;4.7;;
37365;SDS011;23239;51.504;7.456;2024-01-27T01:35:00;18.1;;;4.7;;
37365;SDS011;23239;51.504;7.456;2024-01-27T01:36:00;18.1;;;4.7;;
37365;SDS011;23239;51.504;7.456;2024-01-27T01:37:00;18.1;;;4.7;;
37365;SDS011;23239;51.504;7.456;2024-01-27T01:38:00;18.1;;;4.7;;
37365;SDS011;23239;51.504;7.456;2024-01-27T01:39:00;20.8;;;4.7;;
37365;SDS011;23239;51.504;7.456;2024-01-27T01:40:00;20.8;;;4.7;;
37365;SDS011;23239;51.504;7.456;2024-01-27T01:41:00;20.8;;;4.7;;
37365;SDS011;23239;51.504;7.456;2024-01-27T01:42:00;20.8;;;4.7;;
37365;SDS011;23239;51.504;7.456;2024-01-27T01:43:00;20.8;;;4.7;;
37365;SDS011;23239;51.504;7.456;2024-01-27T01:44:00;20.6;;;5.1;;
37365;SDS011;23239;51.504;7.456;2024-01-27T01:45:00;20.6;;;5.1;;
37365;SDS011;23239;51.504;7.456;2024-01-27T01:46:00;20.6;;;5.1;;
37365;SDS011;23239;51.504;7.456;2024-01-27T01:47:00;20.6;;;5.1;;
37365;SDS011;23239;51.504;7.456;2024-01-27T01:48:00;20.6;;;5.1;;
37365;SDS011;23239;51.504;7.456;2024-01-27T01:49:00;15.0;;;4.8;;
37365;SDS011;23239;51.504;7.456;2024-01-27T01:50:00;15.0;;;4.8;;
37365;SDS011;23239;51.504;7.456;2024-01-27T01:51:00;15.0;;;4.8;;
37365;SDS011;23239;51.504;7.456;2024-01-27T01:52:00;15.0;;;4.8;;
37365;SDS011;23239;51.504;7.456;2024-01-27T01:53:00;15.0;;;4.8;;
37365;SDS011;23239;51.504;7.456;2024-01-27T01:54:00;18.9;;;5.0;;
37365;SDS011;23239;51.504;7.456;2024-01-27T01:55:00;18.9;;;5.0;;
37365;SDS011;23239;51.504;7.456;2024-01-27T01:56:00;18.9;;;5.0;;
37365;SDS011;23239;51.504;7.456;2024-01-27T01:57:00;18.9;;;5.0;;
37365;SDS011;23239;51.504;7.456;2024-01-27T01:58:00;18.9;;;5.0;;
37365;SDS011;23239;51.504;7.456;2024-01-27T01:59:00;20.0;;;4.8;;
37365;SDS011;23239;51.504;7.456;2024-01-27T02:00:00;20.0;;;4.8;;
37365;SDS011;23239;51.504;7.456;2024-01-27T02:04:00;16.1;;;4.6;;
37365;SDS011;23239;51.504;7.456;2024-01-27T02:05:00;16.1;;;4.6;;
37365;SDS011;23239;51.504;7.456;2024-01-27T02:06:00;16.1;;;4.6;;
37365;SDS011;23239;51.504;7.456;2024-01-27T02:07:00;16.1;;;4.6;;
37365;SDS011;23239;51.504;7.456;2024-01-27T02:08:00;16.1;;;4.6;;
37365;SDS011;23239;51.504;7.456;2024-01-27T02:09:00;15.0;;;4.8;;
37365;SDS011;23239;51.504;7.456;2024-01-27T02:10:00;15.0;;;4.8;;
37365;SDS011;23239;51.504;7.456;2024-01-27T02:11:00;15.0;;;4.8;;
37365;SDS011;23239;51.504;7.456;2024-01-27T02:12:00;15.0;;;4.8;;
37365;SDS011;23239;51.504;7.456;2024-01-27T02:13:00;15.0;;;4.8;;
37365;SDS011;23239;51.504;7.456;2024-01-27T02:14:00;22.4;;;5.0;;
37365;SDS011;23239;51.504;7.456;2024-01-27T02:15:00;22.4;;;5.0;;
37365;SDS011;23239;51.504;7.456;2024-01-27T02:16:00;22.4;;;5.0;;
37365;SDS011;23239;51.504;7.456;2024-01-27T02:17:00;22.4;;;5.0;;
37365;SDS011;23239;51.504;7.456;2024-01-27T02:18:00;22.4;;;5.0;;
37365;SDS011;23239;51.504;7.456;2024-01-27T02:19:00;18.8;;;4.8;;
37365;SDS011;23239;51.504;7.456;2024-01-27T02:20:00;18.8;;;4.8;;
37365;SDS011;23239;51.504;7.456;2024-01-27T02:21:00;18.8;;;4.8;;
37365;SDS011;23239;51.504;7.456;2024-01-27T02:22:00;18.8;;;4.8;;
37365;SDS011;23239;51.504;7.456;2024-01-27T02:23:00;18.8;;;4.8;;
37365;SDS011;23239;51.504;7.456;2024-01-27T02:24:00;19.2;;;4.8;;
37365;SDS011;23239;51.504;7.456;2024-01-27T02:25:00;19.2;;;4.8;;
37365;SDS011;23239;51.504;7.456;2024-01-27T02:26:00;19.2;;;4.8;;
37365;SDS011;23239;51.504;7.456;2024-01-27T02:27:00;19.2;;;4.8;;
37365;SDS011;23239;51.504;7.456;2024-01-27T02:28:00;19.2;;;4.8;;
37365;SDS011;23239;51.504;7.456;2024-01-27T02:29:00;15.5;;;4.9;;
37365;SDS011;23239;51.504;7.456;2024-01-27T02:30:00;15.5;;;4.9;;
37365;SDS011;23239;51.504;7.456;2024-01-27T02:31:00;15.5;;;4.9;;
37365;SDS011;23239;51.504;7.456;2024-01-27T02:32:00;15.5;;;4.9;;
37365;SDS011;23239;51.504;7.456;2024-01-27T02:33:00;15.5;;;4.9;;
37365;SDS011;23239;51.504;7.456;2024-01-27T02:34:00;14.7;;;4.7;;
37365;SDS011;23239;51.504;7.456;2024-01-27T02:35:00;14.7;;;4.7;;
37365;SDS011;23239;51.504;7.456;2024-01-27T02:36:00;14.7;;;4.7;;
37365;SDS011;23239;51.504;7.456;2024-01-27T02:37:00;14.7;;;4.7;;
37365;SDS011;23239;51.504;7.456;2024-01-27T02:38:00;14.7;;;4.7;;
37365;SDS011;23239;51.504;7.456;2024-01-27T02:39:00;18.3;;;4.6;;
37365;SDS011;23239;51.504;7.456;2024-01-27T02:40:00;18.3;;;4.6;;
37365;SDS011;23239;51.504;7.456;2024-01-27T02:41:00;18.3;;;4.6;;
37365;SDS011;23239;51.504;7.456;2024-01-27T02:42:00;18.3;;;4.6;;
37365;SDS011;23239;51.504;7.456;2024-01-27T02:43:00;18.3;;;4.6;;
37365;SDS011;23239;51.504;7.456;2024-01-27T02:44:00;18.7;;;5.0;;
37365;SDS011;23239;51.504;7.456;2024-01-27T02:45:00;18.7;;;5.0;;
37365;SDS011;23239;51.504;7.456;2024-01-27T02:46:00;18.7;;;5.0;;
37365;SDS011;23239;51.504;7.456;2024-01-27T02:47:00;18.7;;;5.0;;
37365;SDS011;23239;51.504;7.456;2024-01-27T02:48:00;18.7;;;5.0;;
37365;SDS011;23239;51.504;7.456;2024-01-27T02:49:00;15.3;;;4.4;;
37365;SDS011;23239;51.504;7.456;2024-01-27T02:50:00;15.3;;;4.4;;
37365;SDS011;23239;51.504;7.456;2024-01-27T02:51:01;15.3;;;4.4;;
37365;SDS011;23239;51.504;7.456;2024-01-27T02:52:00;15.3;;;4.4;;
37365;SDS011;23239;51.504;7.456;2024-01-27T02:53:00;15.3;;;4.4;;
37365;SDS011;23239;51.504;7.456;2024-01-27T02:54:00;17.6;;;4.8;;
37365;SDS011;23239;51.504;7.456;2024-01-27T02:55:00;17.6;;;4.8;;
37365;SDS011;23239;51.504;7.456;2024-01-27T02:56:00;17.6;;;4.8;;
37365;SDS011;23239;51.504;7.456;2024-01-27T02:57:00;17.6;;;4.8;;
37365;SDS011;23239;51.504;7.456;2024-01-27T02:58:00;17.6;;;4.8;;
37365;SDS011;23239;51.504;7.456;2024-01-27T02:59:00;19.1;;;4.9;;
37365;SDS011;23239;51.504;7.456;2024-01-27T03:00:00;19.1;;;4.9;;
37365;SDS011;23239;51.504;7.456;2024-01-27T03:01:00;19.1;;;4.9;;
37365;SDS011;23239;51.504;7.456;2024-01-27T03:02:00;19.1;;;4.9;;
37365;SDS011;23239;51.504;7.456;2024-01-27T03:03:00;19.1;;;4.9;;
37365;SDS011;23239;51.504;7.456;2024-01-27T03:04:00;18.2;;;4.8;;
37365;SDS011;23239;51.504;7.456;2024-01-27T03:05:00;18.2;;;4.8;;
37365;SDS011;23239;51.504;7.456;2024-01-27T03:06:00;18.2;;;4.8;;
37365;SDS011;23239;51.504;7.456;2024-01-27T03:07:00;18.2;;;4.8;;
37365;SDS011;23239;51.504;7.456;2024-01-27T03:08:00;18.2;;;4.8;;
37365;SDS011;23239;51.504;7.456;2024-01-27T03:09:00;19.6;;;5.5;;
37365;SDS011;23239;51.504;7.456;2024-01-27T03:10:00;19.6;;;5.5;;
37365;SDS011;23239;51.504;7.456;2024-01-27T03:11:00;19.6;;;5.5;;
37365;SDS011;23239;51.504;7.456;2024-01-27T03:12:00;19.6;;;5.5;;
37365;SDS011;23239;51.504;7.456;2024-01-27T03:13:00;19.6;;;5.5;;
37365;SDS011;23239;51.504;7.456;2024-01-27T03:14:00;20.2;;;5.1;;
37365;SDS011;23239;51.504;7.456;2024-01-27T03:15:00;20.2;;;5.1;;
37365;SDS011;23239;51.504;7.456;2024-01-27T03:16:00;20.2;;;5.1;;
37365;SDS011;23239;51.504;7.456;2024-01-27T03:17:00;20.2;;;5.1;;
37365;SDS011;23239;51.504;7.456;2024-01-27T03:18:00;20.2;;;5.1;;
37365;SDS011;23239;51.504;7.456;2024-01-27T03:19:00;18.0;;;5.1;;
37365;SDS011;23239;51.504;7.456;2024-01-27T03:20:00;18.0;;;5.1;;
37365;SDS011;23239;51.504;7.456;2024-01-27T03:21:00;18.0;;;5.1;;
37365;SDS011;23239;51.504;7.456;2024-01-27T03:22:00;18.0;;;5.1;;
37365;SDS011;23239;51.504;7.456;2024-01-27T03:23:00;18.0;;;5.1;;
37365;SDS011;23239;51.504;7.456;2024-01-27T03:24:00;19.5;;;4.9;;
37365;SDS011;23239;51.504;7.456;2024-01-27T03:25:00;19.5;;;4.9;;
37365;SDS011;23239;51.504;7.456;2024-01-27T03:26:00;19.5;;;4.9;;
37365;SDS011;23239;51.504;7.456;2024-01-27T03:27:00;19.5;;;4.9;;
37365;SDS011;23239;51.504;7.456;2024-01-27T03:28:00;19.5;;;4.9;;
37365;SDS011;23239;51.504;7.456;2024-01-27T03:29:00;18.3;;;4.8;;
37365;SDS011;23239;51.504;7.456;2024-01-27T03:30:00;18.3;;;4.8;;
37365;SDS011;23239;51.504;7.456;2024-01-27T03:31:00;18.3;;;4.8;;
37365;SDS011;23239;51.504;7.456;2024-01-27T03:32:00;18.3;;;4.8;;
37365;SDS011;23239;51.504;7.456;2024-01-27T03:33:00;18.3;;;4.8;;
37365;SDS011;23239;51.504;7.456;2024-01-27T03:34:00;18.7;;;5.3;;
37365;SDS011;23239;51.504;7.456;2024-01-27T03:35:00;18.7;;;5.3;;
37365;SDS011;23239;51.504;7.456;2024-01-27T03:36:00;18.7;;;5.3;;
37365;SDS011;23239;51.504;7.456;2024-01-27T03:37:00;18.7;;;5.3;;
37365;SDS011;23239;51.504;7.456;2024-01-27T03:38:00;18.7;;;5.3;;
37365;SDS011;23239;51.504;7.456;2024-01-27T03:39:00;18.4;;;4.8;;
37365;SDS011;23239;51.504;7.456;2024-01-27T03:40:00;18.4;;;4.8;;
37365;SDS011;23239;51.504;7.456;2024-01-27T03:41:00;18.4;;;4.8;;
37365;SDS011;23239;51.504;7.456;2024-01-27T03:42:00;18.4;;;4.8;;
37365;SDS011;23239;51.504;7.456;2024-01-27T03:43:00;18.4;;;4.8;;
37365;SDS011;23239;51.504;7.456;2024-01-27T03:44:00;19.4;;;5.4;;
37365;SDS011;23239;51.504;7.456;2024-01-27T03:45:00;19.4;;;5.4;;
37365;SDS011;23239;51.504;7.456;2024-01-27T03:46:00;19.4;;;5.4;;
37365;SDS011;23239;51.504;7.456;2024-01-27T03:47:00;19.4;;;5.4;;
37365;SDS011;23239;51.504;7.456;2024-01-27T03:48:00;19.4;;;5.4;;
37365;SDS011;23239;51.504;7.456;2024-01-27T03:49:00;18.8;;;5.1;;
37365;SDS011;23239;51.504;7.456;2024-01-27T03:50:00;18.8;;;5.1;;
37365;SDS011;23239;51.504;7.456;2024-01-27T03:51:00;18.8;;;5.1;;
37365;SDS011;23239;51.504;7.456;2024-01-27T03:52:00;18.8;;;5.1;;
37365;SDS011;23239;51.504;7.456;2024-01-27T03:53:00;18.8;;;5.1;;
37365;SDS011;23239;51.504;7.456;2024-01-27T03:54:00;17.2;;;5.1;;
37365;SDS011;23239;51.504;7.456;2024-01-27T03:55:00;17.2;;;5.1;;
37365;SDS011;23239;51.504;7.456;2024-01-27T03:56:01;17.2;;;5.1;;
37365;SDS011;23239;51.504;7.456;2024-01-27T03:57:00;17.2;;;5.1;;
37365;SDS011;23239;51.504;7.456;2024-01-27T03:58:00;17.2;;;5.1;;
37365;SDS011;23239;51.504;7.456;2024-01-27T03:59:00;17.5;;;5.5;;
37365;SDS011;23239;51.504;7.456;2024-01-27T04:00:00;17.5;;;5.5;;
37365;SDS011;23239;51.504;7.456;2024-01-27T04:01:00;17.5;;;5.5;;
37365;SDS011;23239;51.504;7.456;2024-01-27T04:02:00;17.5;;;5.5;;
37365;SDS011;23239;51.504;7.456;2024-01-27T04:03:00;17.5;;;5.5;;
37365;SDS011;23239;51.504;7.456;2024-01-27T04:04:00;17.3;;;5.7;;
37365;SDS011;23239;51.504;7.456;2024-01-27T04:05:00;17.3;;;5.7;;
37365;SDS011;23239;51.504;7.456;2024-01-27T04:06:00;17.3;;;5.7;;
37365;SDS011;23239;51.504;7.456;2024-01-27T04:07:00;17.3;;;5.7;;
37365;SDS011;23239;51.504;7.456;2024-01-27T04:08:00;17.3;;;5.7;;
37365;SDS011;23239;51.504;7.456;2024-01-27T04:09:00;18.6;;;5.5;;
37365;SDS011;23239;51.504;7.456;2024-01-27T04:10:01;18.6;;;5.5;;
37365;SDS011;23239;51.504;7.456;2024-01-27T04:11:00;18.6;;;5.5;;
37365;SDS011;23239;51.504;7.456;2024-01-27T04:12:00;18.6;;;5.5;;
37365;SDS011;23239;51.504;7.456;2024-01-27T04:13:00;18.6;;;5.5;;
37365;SDS011;23239;51.504;7.456;2024-01-27T04:14:00;18.7;;;5.4;;
37365;SDS011;23239;51.504;7.456;2024-01-27T04:15:00;18.7;;;5.4;;
37365;SDS011;23239;51.504;7.456;2024-01-27T04:16:00;18.7;;;5.4;;
37365;SDS011;23239;51.504;7.456;2024-01-27T04:17:00;18.7;;;5.4;;
37365;SDS011;23239;51.504;7.456;2024-01-27T04:18:00;18.7;;;5.4;;
37365;SDS011;23239;51.504;7.456;2024-01-27T04:19:00;20.4;;;5.4;;
37365;SDS011;23239;51.504;7.456;2024-01-27T04:20:00;20.4;;;5.4;;
37365;SDS011;23239;51.504;7.456;2024-01-27T04:21:00;20.4;;;5.4;;
37365;SDS011;23239;51.504;7.456;2024-01-27T04:22:00;20.4;;;5.4;;
37365;SDS011;23239;51.504;7.456;2024-01-27T04:23:00;20.4;;;5.4;;
37365;SDS011;23239;51.504;7.456;2024-01-27T04:24:00;20.0;;;5.6;;
37365;SDS011;23239;51.504;7.456;2024-01-27T04:25:00;20.0;;;5.6;;
37365;SDS011;23239;51.504;7.456;2024-01-27T04:26:00;20.0;;;5.6;;
37365;SDS011;23239;51.504;7.456;2024-01-27T04:27:00;20.0;;;5.6;;
37365;SDS011;23239;51.504;7.456;2024-01-27T04:28:00;20.0;;;5.6;;
37365;SDS011;23239;51.504;7.456;2024-01-27T04:29:00;23.4;;;6.1;;
37365;SDS011;23239;51.504;7.456;2024-01-27T04:30:00;23.4;;;6.1;;
37365;SDS011;23239;51.504;7.456;2024-01-27T04:31:00;23.4;;;6.1;;
37365;SDS011;23239;51.504;7.456;2024-01-27T04:32:00;23.4;;;6.1;;
37365;SDS011;23239;51.504;7.456;2024-01-27T04:33:00;23.4;;;6.1;;
37365;SDS011;23239;51.504;7.456;2024-01-27T04:34:00;20.9;;;5.5;;
37365;SDS011;23239;51.504;7.456;2024-01-27T04:35:00;20.9;;;5.5;;
37365;SDS011;23239;51.504;7.456;2024-01-27T04:36:00;20.9;;;5.5;;
37365;SDS011;23239;51.504;7.456;2024-01-27T04:37:00;20.9;;;5.5;;
37365;SDS011;23239;51.504;7.456;2024-01-27T04:38:00;20.9;;;5.5;;
37365;SDS011;23239;51.504;7.456;2024-01-27T04:39:00;18.8;;;5.4;;
37365;SDS011;23239;51.504;7.456;2024-01-27T04:40:00;18.8;;;5.4;;
37365;SDS011;23239;51.504;7.456;2024-01-27T04:41:00;18.8;;;5.4;;
37365;SDS011;23239;51.504;7.456;2024-01-27T04:42:00;18.8;;;5.4;;
37365;SDS011;23239;51.504;7.456;2024-01-27T04:43:00;18.8;;;5.4;;
37365;SDS011;23239;51.504;7.456;2024-01-27T04:44:00;24.8;;;5.8;;
37365;SDS011;23239;51.504;7.456;2024-01-27T04:45:00;24.8;;;5.8;;
37365;SDS011;23239;51.504;7.456;2024-01-27T04:46:00;24.8;;;5.8;;
37365;SDS011;23239;51.504;7.456;2024-01-27T04:47:00;24.8;;;5.8;;
37365;SDS011;23239;51.504;7.456;2024-01-27T04:48:00;24.8;;;5.8;;
37365;SDS011;23239;51.504;7.456;2024-01-27T04:49:00;18.6;;;5.2;;
37365;SDS011;23239;51.504;7.456;2024-01-27T04:50:00;18.6;;;5.2;;
37365;SDS011;23239;51.504;7.456;2024-01-27T04:51:00;18.6;;;5.2;;
37365;SDS011;23239;51.504;7.456;2024-01-27T04:52:00;18.6;;;5.2;;
37365;SDS011;23239;51.504;7.456;2024-01-27T04:53:00;18.6;;;5.2;;
37365;SDS011;23239;51.504;7.456;2024-01-27T04:54:00;18.1;;;6.0;;
37365;SDS011;23239;51.504;7.456;2024-01-27T04:55:00;18.1;;;6.0;;
37365;SDS011;23239;51.504;7.456;2024-01-27T04:56:00;18.1;;;6.0;;
37365;SDS011;23239;51.504;7.456;2024-01-27T04:57:00;18.1;;;6.0;;
37365;SDS011;23239;51.504;7.456;2024-01-27T04:58:00;18.1;;;6.0;;
37365;SDS011;23239;51.504;7.456;2024-01-27T04:59:00;19.9;;;5.0;;
37365;SDS011;23239;51.504;7.456;2024-01-27T05:00:00;19.9;;;5.0;;
37365;SDS011;23239;51.504;7.456;2024-01-27T05:01:00;19.9;;;5.0;;
37365;SDS011;23239;51.504;7.456;2024-01-27T05:02:00;19.9;;;5.0;;
37365;SDS011;23239;51.504;7.456;2024-01-27T05:03:00;19.9;;;5.0;;
37365;SDS011;23239;51.504;7.456;2024-01-27T05:04:00;17.9;;;5.4;;
37365;SDS011;23239;51.504;7.456;2024-01-27T05:05:01;17.9;;;5.4;;
37365;SDS011;23239;51.504;7.456;2024-01-27T05:06:00;17.9;;;5.4;;
37365;SDS011;23239;51.504;7.456;2024-01-27T05:07:00;17.9;;;5.4;;
37365;SDS011;23239;51.504;7.456;2024-01-27T05:08:00;17.9;;;5.4;;
37365;SDS011;23239;51.504;7.456;2024-01-27T05:09:00;21.7;;;5.6;;
37365;SDS011;23239;51.504;7.456;2024-01-27T05:10:00;21.7;;;5.6;;
37365;SDS011;23239;51.504;7.456;2024-01-27T05:11:00;21.7;;;5.6;;
37365;SDS011;23239;51.504;7.456;2024-01-27T05:12:00;21.7;;;5.6;;
37365;SDS011;23239;51.504;7.456;2024-01-27T05:13:00;21.7;;;5.6;;
37365;SDS011;23239;51.504;7.456;2024-01-27T05:14:00;17.3;;;5.2;;
37365;SDS011;23239;51.504;7.456;2024-01-27T05:15:00;17.3;;;5.2;;
37365;SDS011;23239;51.504;7.456;2024-01-27T05:16:00;17.3;;;5.2;;
37365;SDS011;23239;51.504;7.456;2024-01-27T05:17:00;17.3;;;5.2;;
37365;SDS011;23239;51.504;7.456;2024-01-27T05:18:00;17.3;;;5.2;;
37365;SDS011;23239;51.504;7.456;2024-01-27T05:19:00;19.7;;;5.7;;
37365;SDS011;23239;51.504;7.456;2024-01-27T05:20:00;19.7;;;5.7;;
37365;SDS011;23239;51.504;7.456;2024-01-27T05:21:00;19.7;;;5.7;;
37365;SDS011;23239;51.504;7.456;2024-01-27T05:22:00;19.7;;;5.7;;
37365;SDS011;23239;51.504;7.456;2024-01-27T05:23:00;19.7;;;5.7;;
37365;SDS011;23239;51.504;7.456;2024-01-27T05:24:00;18.4;;;5.1;;
37365;SDS011;23239;51.504;7.456;2024-01-27T05:25:00;18.4;;;5.1;;
37365;SDS011;23239;51.504;7.456;2024-01-27T05:26:00;18.4;;;5.1;;
37365;SDS011;23239;51.504;7.456;2024-01-27T05:27:00;18.4;;;5.1;;
37365;SDS011;23239;51.504;7.456;2024-01-27T05:28:00;18.4;;;5.1;;
37365;SDS011;23239;51.504;7.456;2024-01-27T05:29:00;16.6;;;5.0;;
37365;SDS011;23239;51.504;7.456;2024-01-27T05:30:00;16.6;;;5.0;;
37365;SDS011;23239;51.504;7.456;2024-01-27T05:31:00;16.6;;;5.0;;
37365;SDS011;23239;51.504;7.456;2024-01-27T05:32:00;16.6;;;5.0;;
37365;SDS011;23239;51.504;7.456;2024-01-27T05:33:00;16.6;;;5.0;;
37365;SDS011;23239;51.504;7.456;2024-01-27T05:34:00;17.3;;;5.4;;
37365;SDS011;23239;51.504;7.456;2024-01-27T05:35:00;17.3;;;5.4;;
37365;SDS011;23239;51.504;7.456;2024-01-27T05:36:00;17.3;;;5.4;;
37365;SDS011;23239;51.504;7.456;2024-01-27T05:37:00;17.3;;;5.4;;
37365;SDS011;23239;51.504;7.456;2024-01-27T05:38:00;17.3;;;5.4;;
37365;SDS011;23239;51.504;7.456;2024-01-27T05:39:00;18.2;;;5.5;;
37365;SDS011;23239;51.504;7.456;2024-01-27T05:40:00;18.2;;;5.5;;
37365;SDS011;23239;51.504;7.456;2024-01-27T05:41:00;18.2;;;5.5;;
37365;SDS011;23239;51.504;7.456;2024-01-27T05:42:00;18.2;;;5.5;;
37365;SDS011;23239;51.504;7.456;2024-01-27T05:43:00;18.2;;;5.5;;
37365;SDS011;23239;51.504;7.456;2024-01-27T05:44:00;17.9;;;5.7;;
37365;SDS011;23239;51.504;7.456;2024-01-27T05:45:00;17.9;;;5.7;;
37365;SDS011;23239;51.504;7.456;2024-01-27T05:46:00;17.9;;;5.7;;
37365;SDS011;23239;51.504;7.456;2024-01-27T05:47:00;17.9;;;5.7;;
37365;SDS011;23239;51.504;7.456;2024-01-27T05:48:00;17.9;;;5.7;;
37365;SDS011;23239;51.504;7.456;2024-01-27T05:49:00;23.3;;;5.7;;
37365;SDS011;23239;51.504;7.456;2024-01-27T05:50:00;23.3;;;5.7;;
37365;SDS011;23239;51.504;7.456;2024-01-27T05:51:00;23.3;;;5.7;;
37365;SDS011;23239;51.504;7.456;2024-01-27T05:52:00;23.3;;;5.7;;
37365;SDS011;23239;51.504;7.456;2024-01-27T05:53:00;23.3;;;5.7;;
37365;SDS011;23239;51.504;7.456;2024-01-27T05:54:00;21.2;;;5.7;;
37365;SDS011;23239;51.504;7.456;2024-01-27T05:55:00;21.2;;;5.7;;
37365;SDS011;23239;51.504;7.456;2024-01-27T05:56:00;21.2;;;5.7;;
37365;SDS011;23239;51.504;7.456;2024-01-27T05:57:00;21.2;;;5.7;;
37365;SDS011;23239;51.504;7.456;2024-01-27T05:58:00;21.2;;;5.7;;
37365;SDS011;23239;51.504;7.456;2024-01-27T05:59:00;16.7;;;5.7;;
37365;SDS011;23239;51.504;7.456;2024-01-27T06:00:00;16.7;;;5.7;;
37365;SDS011;23239;51.504;7.456;2024-01-27T06:01:00;16.7;;;5.7;;
37365;SDS011;23239;51.504;7.456;2024-01-27T06:02:00;16.7;;;5.7;;
37365;SDS011;23239;51.504;7.456;2024-01-27T06:03:00;16.7;;;5.7;;
37365;SDS011;23239;51.504;7.456;2024-01-27T06:04:00;21.2;;;5.8;;
37365;SDS011;23239;51.504;7.456;2024-01-27T06:05:00;21.2;;;5.8;;
37365;SDS011;23239;51.504;7.456;2024-01-27T06:06:00;21.2;;;5.8;;
37365;SDS011;23239;51.504;7.456;2024-01-27T06:07:00;21.2;;;5.8;;
37365;SDS011;23239;51.504;7.456;2024-01-27T06:08:00;21.2;;;5.8;;
37365;SDS011;23239;51.504;7.456;2024-01-27T06:09:00;19.3;;;5.7;;